sensor_id;sensor_type;location;lat;lon;timestamp;P1;durP1;ratioP1;P2;durP2;ratioP2
68247;SDS011;55064;49.636;12.164;2024-01-10T00:00:04;16.73;;;4.75;;
68247;SDS011;55064;49.636;12.164;2024-01-10T00:02:30;12.70;;;3.10;;
68247;SDS011;55064;49.636;12.164;2024-01-10T00:04:56;13.20;;;3.05;;
68247;SDS011;55064;49.636;12.164;2024-01-10T00:07:21;13.13;;;4.27;;
68247;SDS011;55064;49.636;12.164;2024-01-10T00:09:46;13.83;;;5.83;;
68247;SDS011;55064;49.636;12.164;2024-01-10T00:12:12;13.87;;;3.57;;
68247;SDS011;55064;49.636;12.164;2024-01-10T00:14:37;15.73;;;4.00;;
68247;SDS011;55064;49.636;12.164;2024-01-10T00:17:02;14.67;;;5.00;;
68247;SDS011;55064;49.636;12.164;2024-01-10T00:19:28;10.75;;;3.67;;
68247;SDS011;55064;49.636;12.164;2024-01-10T00:21:53;13.40;;;4.40;;
68247;SDS011;55064;49.636;12.164;2024-01-10T00:24:19;11.33;;;3.70;;
68247;SDS011;55064;49.636;12.164;2024-01-10T00:26:44;13.20;;;4.13;;
68247;SDS011;55064;49.636;12.164;2024-01-10T00:29:10;13.82;;;3.83;;
68247;SDS011;55064;49.636;12.164;2024-01-10T00:31:36;15.07;;;4.37;;
68247;SDS011;55064;49.636;12.164;2024-01-10T00:34:01;13.20;;;3.97;;
68247;SDS011;55064;49.636;12.164;2024-01-10T00:36:27;15.50;;;4.83;;
68247;SDS011;55064;49.636;12.164;2024-01-10T00:38:52;9.67;;;2.50;;
68247;SDS011;55064;49.636;12.164;2024-01-10T00:41:17;12.47;;;3.57;;
68247;SDS011;55064;49.636;12.164;2024-01-10T00:43:43;12.17;;;3.23;;
68247;SDS011;55064;49.636;12.164;2024-01-10T00:46:08;10.30;;;3.43;;
68247;SDS011;55064;49.636;12.164;2024-01-10T00:48:33;20.55;;;4.63;;
68247;SDS011;55064;49.636;12.164;2024-01-10T00:50:59;12.63;;;4.07;;
68247;SDS011;55064;49.636;12.164;2024-01-10T00:53:24;12.53;;;4.83;;
68247;SDS011;55064;49.636;12.164;2024-01-10T00:55:50;16.10;;;5.73;;
68247;SDS011;55064;49.636;12.164;2024-01-10T00:58:15;13.77;;;3.80;;
68247;SDS011;55064;49.636;12.164;2024-01-10T01:00:41;15.90;;;4.25;;
68247;SDS011;55064;49.636;12.164;2024-01-10T01:03:06;12.83;;;3.90;;
68247;SDS011;55064;49.636;12.164;2024-01-10T01:05:31;12.77;;;4.20;;
68247;SDS011;55064;49.636;12.164;2024-01-10T01:07:57;16.23;;;5.50;;
68247;SDS011;55064;49.636;12.164;2024-01-10T01:10:22;13.77;;;3.93;;
68247;SDS011;55064;49.636;12.164;2024-01-10T01:12:47;11.93;;;4.27;;
68247;SDS011;55064;49.636;12.164;2024-01-10T01:15:13;12.97;;;3.33;;
68247;SDS011;55064;49.636;12.164;2024-01-10T01:17:38;10.67;;;3.63;;
68247;SDS011;55064;49.636;12.164;2024-01-10T01:20:04;12.13;;;3.70;;
68247;SDS011;55064;49.636;12.164;2024-01-10T01:22:30;11.38;;;3.83;;
68247;SDS011;55064;49.636;12.164;2024-01-10T01:24:56;8.43;;;2.90;;
68247;SDS011;55064;49.636;12.164;2024-01-10T01:27:22;10.47;;;3.70;;
68247;SDS011;55064;49.636;12.164;2024-01-10T01:29:48;16.02;;;4.35;;
68247;SDS011;55064;49.636;12.164;2024-01-10T01:32:14;12.00;;;3.60;;
68247;SDS011;55064;49.636;12.164;2024-01-10T01:34:39;11.52;;;3.35;;
68247;SDS011;55064;49.636;12.164;2024-01-10T01:37:04;9.93;;;2.73;;
68247;SDS011;55064;49.636;12.164;2024-01-10T01:39:30;9.50;;;3.30;;
68247;SDS011;55064;49.636;12.164;2024-01-10T01:41:55;11.93;;;4.17;;
68247;SDS011;55064;49.636;12.164;2024-01-10T01:44:20;17.17;;;4.73;;
68247;SDS011;55064;49.636;12.164;2024-01-10T01:46:46;11.07;;;3.73;;
68247;SDS011;55064;49.636;12.164;2024-01-10T01:49:12;16.23;;;5.40;;
68247;SDS011;55064;49.636;12.164;2024-01-10T01:51:39;12.73;;;4.88;;
68247;SDS011;55064;49.636;12.164;2024-01-10T01:54:06;15.23;;;5.13;;
68247;SDS011;55064;49.636;12.164;2024-01-10T01:56:36;14.02;;;3.72;;
68247;SDS011;55064;49.636;12.164;2024-01-10T01:59:05;11.98;;;3.90;;
68247;SDS011;55064;49.636;12.164;2024-01-10T02:01:30;13.37;;;4.23;;
68247;SDS011;55064;49.636;12.164;2024-01-10T02:03:56;10.43;;;3.38;;
68247;SDS011;55064;49.636;12.164;2024-01-10T02:06:21;9.07;;;1.97;;
68247;SDS011;55064;49.636;12.164;2024-01-10T02:08:47;18.83;;;4.95;;
68247;SDS011;55064;49.636;12.164;2024-01-10T02:11:12;21.67;;;6.97;;
68247;SDS011;55064;49.636;12.164;2024-01-10T02:13:38;15.17;;;4.23;;
68247;SDS011;55064;49.636;12.164;2024-01-10T02:16:04;14.07;;;4.53;;
68247;SDS011;55064;49.636;12.164;2024-01-10T02:18:30;11.80;;;4.23;;
68247;SDS011;55064;49.636;12.164;2024-01-10T02:20:56;14.27;;;5.15;;
68247;SDS011;55064;49.636;12.164;2024-01-10T02:23:21;13.90;;;3.80;;
68247;SDS011;55064;49.636;12.164;2024-01-10T02:25:46;17.00;;;6.00;;
68247;SDS011;55064;49.636;12.164;2024-01-10T02:28:12;12.30;;;3.85;;
68247;SDS011;55064;49.636;12.164;2024-01-10T02:30:37;13.50;;;4.50;;
68247;SDS011;55064;49.636;12.164;2024-01-10T02:33:03;17.73;;;6.07;;
68247;SDS011;55064;49.636;12.164;2024-01-10T02:35:28;13.75;;;4.65;;
68247;SDS011;55064;49.636;12.164;2024-01-10T02:37:55;14.68;;;4.43;;
68247;SDS011;55064;49.636;12.164;2024-01-10T02:40:21;13.20;;;3.70;;
68247;SDS011;55064;49.636;12.164;2024-01-10T02:42:46;13.73;;;3.97;;
68247;SDS011;55064;49.636;12.164;2024-01-10T02:45:12;17.13;;;5.70;;
68247;SDS011;55064;49.636;12.164;2024-01-10T02:47:37;13.75;;;4.30;;
68247;SDS011;55064;49.636;12.164;2024-01-10T02:50:03;11.13;;;3.83;;
68247;SDS011;55064;49.636;12.164;2024-01-10T02:52:30;13.73;;;4.18;;
68247;SDS011;55064;49.636;12.164;2024-01-10T02:54:55;14.47;;;4.07;;
68247;SDS011;55064;49.636;12.164;2024-01-10T02:57:21;16.08;;;5.25;;
68247;SDS011;55064;49.636;12.164;2024-01-10T02:59:46;19.37;;;4.80;;
68247;SDS011;55064;49.636;12.164;2024-01-10T03:02:11;19.33;;;6.13;;
68247;SDS011;55064;49.636;12.164;2024-01-10T03:04:37;18.60;;;5.23;;
68247;SDS011;55064;49.636;12.164;2024-01-10T03:07:02;19.83;;;6.05;;
68247;SDS011;55064;49.636;12.164;2024-01-10T03:09:28;15.13;;;5.07;;
68247;SDS011;55064;49.636;12.164;2024-01-10T03:11:53;16.77;;;5.23;;
68247;SDS011;55064;49.636;12.164;2024-01-10T03:14:19;17.40;;;4.97;;
68247;SDS011;55064;49.636;12.164;2024-01-10T03:16:44;16.60;;;5.03;;
68247;SDS011;55064;49.636;12.164;2024-01-10T03:19:10;18.37;;;5.90;;
68247;SDS011;55064;49.636;12.164;2024-01-10T03:21:36;13.43;;;3.97;;
68247;SDS011;55064;49.636;12.164;2024-01-10T03:24:01;14.17;;;4.03;;
68247;SDS011;55064;49.636;12.164;2024-01-10T03:26:27;14.20;;;4.07;;
68247;SDS011;55064;49.636;12.164;2024-01-10T03:28:55;17.63;;;6.22;;
68247;SDS011;55064;49.636;12.164;2024-01-10T03:31:21;13.90;;;4.70;;
68247;SDS011;55064;49.636;12.164;2024-01-10T03:33:46;14.17;;;5.27;;
68247;SDS011;55064;49.636;12.164;2024-01-10T03:36:12;11.63;;;3.63;;
68247;SDS011;55064;49.636;12.164;2024-01-10T03:38:40;15.43;;;4.38;;
68247;SDS011;55064;49.636;12.164;2024-01-10T03:41:05;15.27;;;5.43;;
68247;SDS011;55064;49.636;12.164;2024-01-10T03:43:31;16.00;;;4.75;;
68247;SDS011;55064;49.636;12.164;2024-01-10T03:45:59;15.30;;;4.63;;
68247;SDS011;55064;49.636;12.164;2024-01-10T03:48:24;17.98;;;5.10;;
68247;SDS011;55064;49.636;12.164;2024-01-10T03:50:50;14.67;;;4.63;;
68247;SDS011;55064;49.636;12.164;2024-01-10T03:53:15;10.60;;;3.40;;
68247;SDS011;55064;49.636;12.164;2024-01-10T03:55:41;14.98;;;4.82;;
68247;SDS011;55064;49.636;12.164;2024-01-10T03:58:06;15.93;;;5.00;;
68247;SDS011;55064;49.636;12.164;2024-01-10T04:00:31;11.43;;;3.80;;
68247;SDS011;55064;49.636;12.164;2024-01-10T04:02:57;14.40;;;5.07;;
68247;SDS011;55064;49.636;12.164;2024-01-10T04:05:22;13.57;;;4.30;;
68247;SDS011;55064;49.636;12.164;2024-01-10T04:07:49;16.83;;;5.15;;
68247;SDS011;55064;49.636;12.164;2024-01-10T04:10:15;14.47;;;5.00;;
68247;SDS011;55064;49.636;12.164;2024-01-10T04:12:41;12.18;;;4.05;;
68247;SDS011;55064;49.636;12.164;2024-01-10T04:15:06;12.30;;;4.50;;
68247;SDS011;55064;49.636;12.164;2024-01-10T04:17:32;11.20;;;3.90;;
68247;SDS011;55064;49.636;12.164;2024-01-10T04:19:57;15.37;;;5.13;;
68247;SDS011;55064;49.636;12.164;2024-01-10T04:22:24;11.32;;;3.28;;
68247;SDS011;55064;49.636;12.164;2024-01-10T04:24:49;16.13;;;5.35;;
68247;SDS011;55064;49.636;12.164;2024-01-10T04:27:15;11.87;;;3.60;;
68247;SDS011;55064;49.636;12.164;2024-01-10T04:29:40;19.42;;;5.20;;
68247;SDS011;55064;49.636;12.164;2024-01-10T04:32:06;15.43;;;5.10;;
68247;SDS011;55064;49.636;12.164;2024-01-10T04:34:31;13.77;;;3.93;;
68247;SDS011;55064;49.636;12.164;2024-01-10T04:36:57;19.33;;;7.00;;
68247;SDS011;55064;49.636;12.164;2024-01-10T04:39:22;17.10;;;4.70;;
68247;SDS011;55064;49.636;12.164;2024-01-10T04:41:48;19.33;;;6.38;;
68247;SDS011;55064;49.636;12.164;2024-01-10T04:44:13;18.37;;;3.97;;
68247;SDS011;55064;49.636;12.164;2024-01-10T04:46:39;15.15;;;4.95;;
68247;SDS011;55064;49.636;12.164;2024-01-10T04:49:06;11.10;;;4.10;;
68247;SDS011;55064;49.636;12.164;2024-01-10T04:51:31;13.32;;;4.85;;
68247;SDS011;55064;49.636;12.164;2024-01-10T04:53:56;15.57;;;4.33;;
68247;SDS011;55064;49.636;12.164;2024-01-10T04:56:22;16.67;;;5.10;;
68247;SDS011;55064;49.636;12.164;2024-01-10T04:58:47;18.13;;;6.10;;
68247;SDS011;55064;49.636;12.164;2024-01-10T05:01:13;20.50;;;6.93;;
68247;SDS011;55064;49.636;12.164;2024-01-10T05:03:38;18.15;;;5.38;;
68247;SDS011;55064;49.636;12.164;2024-01-10T05:06:03;19.23;;;5.87;;
68247;SDS011;55064;49.636;12.164;2024-01-10T05:08:29;18.27;;;5.03;;
68247;SDS011;55064;49.636;12.164;2024-01-10T05:10:55;19.05;;;6.43;;
68247;SDS011;55064;49.636;12.164;2024-01-10T05:13:20;13.03;;;4.60;;
68247;SDS011;55064;49.636;12.164;2024-01-10T05:15:46;16.90;;;4.97;;
68247;SDS011;55064;49.636;12.164;2024-01-10T05:18:11;21.50;;;6.40;;
68247;SDS011;55064;49.636;12.164;2024-01-10T05:20:37;15.27;;;5.50;;
68247;SDS011;55064;49.636;12.164;2024-01-10T05:23:02;16.80;;;5.63;;
68247;SDS011;55064;49.636;12.164;2024-01-10T05:25:28;16.57;;;5.37;;
68247;SDS011;55064;49.636;12.164;2024-01-10T05:27:54;18.58;;;5.75;;
68247;SDS011;55064;49.636;12.164;2024-01-10T05:30:19;26.20;;;8.37;;
68247;SDS011;55064;49.636;12.164;2024-01-10T05:32:45;20.60;;;6.50;;
68247;SDS011;55064;49.636;12.164;2024-01-10T05:35:10;18.93;;;5.73;;
68247;SDS011;55064;49.636;12.164;2024-01-10T05:37:36;20.08;;;6.93;;
68247;SDS011;55064;49.636;12.164;2024-01-10T05:40:02;17.40;;;4.97;;
68247;SDS011;55064;49.636;12.164;2024-01-10T05:42:29;15.98;;;5.07;;
68247;SDS011;55064;49.636;12.164;2024-01-10T05:44:55;13.03;;;4.07;;
68247;SDS011;55064;49.636;12.164;2024-01-10T05:47:20;19.07;;;7.67;;
68247;SDS011;55064;49.636;12.164;2024-01-10T05:49:45;18.83;;;7.05;;
68247;SDS011;55064;49.636;12.164;2024-01-10T05:52:11;16.67;;;5.27;;
68247;SDS011;55064;49.636;12.164;2024-01-10T05:54:36;17.10;;;3.93;;
68247;SDS011;55064;49.636;12.164;2024-01-10T05:57:02;18.20;;;6.70;;
68247;SDS011;55064;49.636;12.164;2024-01-10T05:59:28;22.50;;;7.00;;
68247;SDS011;55064;49.636;12.164;2024-01-10T06:01:53;19.08;;;6.60;;
68247;SDS011;55064;49.636;12.164;2024-01-10T06:04:19;20.17;;;6.13;;
68247;SDS011;55064;49.636;12.164;2024-01-10T06:06:44;16.13;;;5.37;;
68247;SDS011;55064;49.636;12.164;2024-01-10T06:09:10;21.58;;;7.53;;
68247;SDS011;55064;49.636;12.164;2024-01-10T06:11:40;21.90;;;6.67;;
68247;SDS011;55064;49.636;12.164;2024-01-10T06:14:06;23.42;;;7.68;;
68247;SDS011;55064;49.636;12.164;2024-01-10T06:16:32;22.73;;;5.87;;
68247;SDS011;55064;49.636;12.164;2024-01-10T06:18:57;22.53;;;6.07;;
68247;SDS011;55064;49.636;12.164;2024-01-10T06:21:22;17.07;;;5.23;;
68247;SDS011;55064;49.636;12.164;2024-01-10T06:23:48;18.48;;;6.60;;
68247;SDS011;55064;49.636;12.164;2024-01-10T06:26:13;22.10;;;7.67;;
68247;SDS011;55064;49.636;12.164;2024-01-10T06:28:39;15.17;;;6.20;;
68247;SDS011;55064;49.636;12.164;2024-01-10T06:31:04;19.27;;;6.53;;
68247;SDS011;55064;49.636;12.164;2024-01-10T06:33:30;15.50;;;5.07;;
68247;SDS011;55064;49.636;12.164;2024-01-10T06:35:55;18.80;;;3.93;;
68247;SDS011;55064;49.636;12.164;2024-01-10T06:38:21;18.83;;;5.18;;
68247;SDS011;55064;49.636;12.164;2024-01-10T06:40:47;16.43;;;5.47;;
68247;SDS011;55064;49.636;12.164;2024-01-10T06:43:13;20.23;;;6.00;;
68247;SDS011;55064;49.636;12.164;2024-01-10T06:45:39;14.18;;;5.00;;
68247;SDS011;55064;49.636;12.164;2024-01-10T06:48:05;19.23;;;7.40;;
68247;SDS011;55064;49.636;12.164;2024-01-10T06:50:31;17.27;;;5.93;;
68247;SDS011;55064;49.636;12.164;2024-01-10T06:52:57;16.33;;;4.53;;
68247;SDS011;55064;49.636;12.164;2024-01-10T06:55:22;16.38;;;4.80;;
68247;SDS011;55064;49.636;12.164;2024-01-10T06:57:49;19.77;;;6.72;;
68247;SDS011;55064;49.636;12.164;2024-01-10T07:00:17;18.53;;;6.17;;
68247;SDS011;55064;49.636;12.164;2024-01-10T07:02:45;22.13;;;6.75;;
68247;SDS011;55064;49.636;12.164;2024-01-10T07:05:10;15.50;;;5.00;;
68247;SDS011;55064;49.636;12.164;2024-01-10T07:07:35;17.47;;;6.00;;
68247;SDS011;55064;49.636;12.164;2024-01-10T07:10:01;22.42;;;7.40;;
68247;SDS011;55064;49.636;12.164;2024-01-10T07:12:30;14.00;;;3.93;;
68247;SDS011;55064;49.636;12.164;2024-01-10T07:14:59;21.98;;;6.68;;
68247;SDS011;55064;49.636;12.164;2024-01-10T07:17:24;19.60;;;5.60;;
68247;SDS011;55064;49.636;12.164;2024-01-10T07:19:50;19.57;;;6.67;;
68247;SDS011;55064;49.636;12.164;2024-01-10T07:22:15;21.57;;;6.30;;
68247;SDS011;55064;49.636;12.164;2024-01-10T07:24:43;18.08;;;5.55;;
68247;SDS011;55064;49.636;12.164;2024-01-10T07:27:08;12.23;;;4.50;;
68247;SDS011;55064;49.636;12.164;2024-01-10T07:29:36;20.50;;;6.70;;
68247;SDS011;55064;49.636;12.164;2024-01-10T07:32:02;23.90;;;7.75;;
68247;SDS011;55064;49.636;12.164;2024-01-10T07:34:28;25.00;;;8.20;;
68247;SDS011;55064;49.636;12.164;2024-01-10T07:36:53;17.13;;;6.40;;
68247;SDS011;55064;49.636;12.164;2024-01-10T07:39:19;22.13;;;7.10;;
68247;SDS011;55064;49.636;12.164;2024-01-10T07:41:44;23.93;;;7.07;;
68247;SDS011;55064;49.636;12.164;2024-01-10T07:44:10;18.75;;;5.95;;
68247;SDS011;55064;49.636;12.164;2024-01-10T07:46:35;17.43;;;6.10;;
68247;SDS011;55064;49.636;12.164;2024-01-10T07:49:03;24.02;;;7.85;;
68247;SDS011;55064;49.636;12.164;2024-01-10T07:51:30;17.40;;;6.50;;
68247;SDS011;55064;49.636;12.164;2024-01-10T07:53:55;17.30;;;5.50;;
68247;SDS011;55064;49.636;12.164;2024-01-10T07:56:21;18.70;;;6.37;;
68247;SDS011;55064;49.636;12.164;2024-01-10T07:58:46;19.77;;;7.80;;
68247;SDS011;55064;49.636;12.164;2024-01-10T08:01:12;18.75;;;5.65;;
68247;SDS011;55064;49.636;12.164;2024-01-10T08:03:37;19.70;;;6.77;;
68247;SDS011;55064;49.636;12.164;2024-01-10T08:06:03;16.67;;;5.57;;
68247;SDS011;55064;49.636;12.164;2024-01-10T08:08:28;24.85;;;9.57;;
68247;SDS011;55064;49.636;12.164;2024-01-10T08:10:55;22.40;;;6.47;;
68247;SDS011;55064;49.636;12.164;2024-01-10T08:13:21;20.77;;;6.28;;
68247;SDS011;55064;49.636;12.164;2024-01-10T08:15:46;22.13;;;8.03;;
68247;SDS011;55064;49.636;12.164;2024-01-10T08:18:11;17.97;;;6.53;;
68247;SDS011;55064;49.636;12.164;2024-01-10T08:20:39;15.32;;;5.68;;
68247;SDS011;55064;49.636;12.164;2024-01-10T08:23:04;19.90;;;6.40;;
68247;SDS011;55064;49.636;12.164;2024-01-10T08:25:29;13.20;;;3.83;;
68247;SDS011;55064;49.636;12.164;2024-01-10T08:27:55;19.80;;;6.43;;
68247;SDS011;55064;49.636;12.164;2024-01-10T08:30:21;18.63;;;7.00;;
68247;SDS011;55064;49.636;12.164;2024-01-10T08:32:47;22.43;;;8.77;;
68247;SDS011;55064;49.636;12.164;2024-01-10T08:35:13;19.38;;;5.40;;
68247;SDS011;55064;49.636;12.164;2024-01-10T08:37:38;14.23;;;4.83;;
68247;SDS011;55064;49.636;12.164;2024-01-10T08:40:07;16.35;;;6.10;;
68247;SDS011;55064;49.636;12.164;2024-01-10T08:42:39;15.88;;;6.45;;
68247;SDS011;55064;49.636;12.164;2024-01-10T08:45:05;20.23;;;5.90;;
68247;SDS011;55064;49.636;12.164;2024-01-10T08:47:30;22.65;;;7.13;;
68247;SDS011;55064;49.636;12.164;2024-01-10T08:49:57;19.67;;;7.03;;
68247;SDS011;55064;49.636;12.164;2024-01-10T08:52:23;17.30;;;5.80;;
68247;SDS011;55064;49.636;12.164;2024-01-10T08:54:48;17.03;;;6.10;;
68247;SDS011;55064;49.636;12.164;2024-01-10T08:57:14;15.48;;;5.07;;
68247;SDS011;55064;49.636;12.164;2024-01-10T08:59:41;14.50;;;5.67;;
68247;SDS011;55064;49.636;12.164;2024-01-10T09:02:07;16.30;;;5.65;;
68247;SDS011;55064;49.636;12.164;2024-01-10T09:04:32;19.43;;;6.73;;
68247;SDS011;55064;49.636;12.164;2024-01-10T09:06:58;19.03;;;6.67;;
68247;SDS011;55064;49.636;12.164;2024-01-10T09:09:23;24.73;;;8.00;;
68247;SDS011;55064;49.636;12.164;2024-01-10T09:11:48;21.90;;;6.27;;
68247;SDS011;55064;49.636;12.164;2024-01-10T09:14:14;19.47;;;6.80;;
68247;SDS011;55064;49.636;12.164;2024-01-10T09:16:39;15.93;;;5.32;;
68247;SDS011;55064;49.636;12.164;2024-01-10T09:19:05;20.67;;;6.17;;
68247;SDS011;55064;49.636;12.164;2024-01-10T09:21:30;14.73;;;5.13;;
68247;SDS011;55064;49.636;12.164;2024-01-10T09:23:56;24.13;;;7.30;;
68247;SDS011;55064;49.636;12.164;2024-01-10T09:26:21;16.92;;;5.63;;
68247;SDS011;55064;49.636;12.164;2024-01-10T09:28:47;12.83;;;4.00;;
68247;SDS011;55064;49.636;12.164;2024-01-10T09:31:13;14.60;;;4.72;;
68247;SDS011;55064;49.636;12.164;2024-01-10T09:33:38;25.03;;;9.30;;
68247;SDS011;55064;49.636;12.164;2024-01-10T09:36:04;17.00;;;5.80;;
68247;SDS011;55064;49.636;12.164;2024-01-10T09:38:29;27.65;;;7.63;;
68247;SDS011;55064;49.636;12.164;2024-01-10T09:41:00;22.75;;;8.45;;
68247;SDS011;55064;49.636;12.164;2024-01-10T09:43:29;15.38;;;5.97;;
68247;SDS011;55064;49.636;12.164;2024-01-10T09:45:55;20.10;;;7.03;;
68247;SDS011;55064;49.636;12.164;2024-01-10T09:48:23;23.10;;;7.75;;
68247;SDS011;55064;49.636;12.164;2024-01-10T09:50:49;25.80;;;10.20;;
68247;SDS011;55064;49.636;12.164;2024-01-10T09:53:20;20.70;;;7.20;;
68247;SDS011;55064;49.636;12.164;2024-01-10T09:55:48;19.50;;;6.03;;
68247;SDS011;55064;49.636;12.164;2024-01-10T09:58:14;19.43;;;6.40;;
68247;SDS011;55064;49.636;12.164;2024-01-10T10:00:39;18.20;;;5.93;;
68247;SDS011;55064;49.636;12.164;2024-01-10T10:03:09;18.35;;;6.72;;
68247;SDS011;55064;49.636;12.164;2024-01-10T10:05:41;19.27;;;5.93;;
68247;SDS011;55064;49.636;12.164;2024-01-10T10:08:07;19.20;;;5.03;;
68247;SDS011;55064;49.636;12.164;2024-01-10T10:10:34;23.80;;;8.00;;
68247;SDS011;55064;49.636;12.164;2024-01-10T10:13:01;17.70;;;6.72;;
68247;SDS011;55064;49.636;12.164;2024-01-10T10:15:27;25.98;;;8.73;;
68247;SDS011;55064;49.636;12.164;2024-01-10T10:17:53;19.33;;;6.53;;
68247;SDS011;55064;49.636;12.164;2024-01-10T10:20:20;19.95;;;6.70;;
68247;SDS011;55064;49.636;12.164;2024-01-10T10:23:05;17.42;;;6.28;;
68247;SDS011;55064;49.636;12.164;2024-01-10T10:25:35;18.42;;;5.95;;
68247;SDS011;55064;49.636;12.164;2024-01-10T10:28:04;21.73;;;7.33;;
68247;SDS011;55064;49.636;12.164;2024-01-10T10:30:30;21.90;;;6.57;;
68247;SDS011;55064;49.636;12.164;2024-01-10T10:32:56;24.15;;;7.88;;
68247;SDS011;55064;49.636;12.164;2024-01-10T10:35:22;27.00;;;8.77;;
68247;SDS011;55064;49.636;12.164;2024-01-10T10:37:48;24.95;;;9.15;;
68247;SDS011;55064;49.636;12.164;2024-01-10T10:40:15;23.55;;;8.88;;
68247;SDS011;55064;49.636;12.164;2024-01-10T10:42:43;24.03;;;9.03;;
68247;SDS011;55064;49.636;12.164;2024-01-10T10:45:11;22.92;;;7.50;;
68247;SDS011;55064;49.636;12.164;2024-01-10T10:47:43;22.48;;;6.40;;
68247;SDS011;55064;49.636;12.164;2024-01-10T10:50:14;20.40;;;6.57;;
68247;SDS011;55064;49.636;12.164;2024-01-10T10:52:46;23.75;;;7.88;;
68247;SDS011;55064;49.636;12.164;2024-01-10T10:55:14;14.05;;;5.53;;
68247;SDS011;55064;49.636;12.164;2024-01-10T10:57:41;22.73;;;7.95;;
68247;SDS011;55064;49.636;12.164;2024-01-10T11:00:09;16.85;;;6.22;;
68247;SDS011;55064;49.636;12.164;2024-01-10T11:02:35;15.07;;;5.23;;
68247;SDS011;55064;49.636;12.164;2024-01-10T11:05:02;15.43;;;5.88;;
68247;SDS011;55064;49.636;12.164;2024-01-10T11:07:28;17.73;;;5.63;;
68247;SDS011;55064;49.636;12.164;2024-01-10T11:09:54;20.23;;;7.37;;
68247;SDS011;55064;49.636;12.164;2024-01-10T11:12:27;21.17;;;7.05;;
68247;SDS011;55064;49.636;12.164;2024-01-10T11:23:38;19.50;;;6.50;;
68247;SDS011;55064;49.636;12.164;2024-01-10T11:26:04;19.83;;;8.52;;
68247;SDS011;55064;49.636;12.164;2024-01-10T11:28:30;21.63;;;8.15;;
68247;SDS011;55064;49.636;12.164;2024-01-10T11:30:56;26.27;;;8.55;;
68247;SDS011;55064;49.636;12.164;2024-01-10T11:33:24;23.90;;;8.52;;
68247;SDS011;55064;49.636;12.164;2024-01-10T11:39:15;21.75;;;7.90;;
68247;SDS011;55064;49.636;12.164;2024-01-10T11:41:38;25.92;;;8.05;;
68247;SDS011;55064;49.636;12.164;2024-01-10T11:46:40;23.33;;;8.50;;
68247;SDS011;55064;49.636;12.164;2024-01-10T11:49:13;20.30;;;8.17;;
68247;SDS011;55064;49.636;12.164;2024-01-10T11:51:44;25.25;;;8.98;;
68247;SDS011;55064;49.636;12.164;2024-01-10T11:54:10;24.45;;;8.60;;
68247;SDS011;55064;49.636;12.164;2024-01-10T11:56:39;21.80;;;8.23;;
68247;SDS011;55064;49.636;12.164;2024-01-10T11:59:10;22.10;;;8.40;;
68247;SDS011;55064;49.636;12.164;2024-01-10T12:01:39;18.25;;;6.47;;
68247;SDS011;55064;49.636;12.164;2024-01-10T12:04:06;21.85;;;8.52;;
68247;SDS011;55064;49.636;12.164;2024-01-10T12:06:32;25.10;;;9.50;;
68247;SDS011;55064;49.636;12.164;2024-01-10T12:08:59;21.75;;;8.40;;
68247;SDS011;55064;49.636;12.164;2024-01-10T12:11:24;23.40;;;8.77;;
68247;SDS011;55064;49.636;12.164;2024-01-10T12:13:50;19.50;;;7.77;;
68247;SDS011;55064;49.636;12.164;2024-01-10T12:16:16;22.13;;;8.63;;
68247;SDS011;55064;49.636;12.164;2024-01-10T12:18:42;20.38;;;7.82;;
68247;SDS011;55064;49.636;12.164;2024-01-10T12:21:08;23.58;;;7.93;;
68247;SDS011;55064;49.636;12.164;2024-01-10T12:23:36;24.70;;;9.53;;
68247;SDS011;55064;49.636;12.164;2024-01-10T12:26:03;22.33;;;7.10;;
68247;SDS011;55064;49.636;12.164;2024-01-10T12:28:32;24.00;;;9.20;;
68247;SDS011;55064;49.636;12.164;2024-01-10T12:30:57;23.87;;;8.00;;
68247;SDS011;55064;49.636;12.164;2024-01-10T12:33:23;25.38;;;9.60;;
68247;SDS011;55064;49.636;12.164;2024-01-10T12:36:06;25.45;;;9.40;;
68247;SDS011;55064;49.636;12.164;2024-01-10T12:38:36;23.30;;;9.10;;
68247;SDS011;55064;49.636;12.164;2024-01-10T12:41:03;20.03;;;7.93;;
68247;SDS011;55064;49.636;12.164;2024-01-10T12:43:29;25.23;;;8.88;;
68247;SDS011;55064;49.636;12.164;2024-01-10T12:46:05;18.67;;;6.75;;
68247;SDS011;55064;49.636;12.164;2024-01-10T12:48:37;22.88;;;8.55;;
68247;SDS011;55064;49.636;12.164;2024-01-10T12:51:06;21.57;;;9.27;;
68247;SDS011;55064;49.636;12.164;2024-01-10T12:53:42;23.85;;;8.80;;
68247;SDS011;55064;49.636;12.164;2024-01-10T12:56:08;27.15;;;10.07;;
68247;SDS011;55064;49.636;12.164;2024-01-10T12:58:37;24.63;;;9.80;;
68247;SDS011;55064;49.636;12.164;2024-01-10T13:01:03;21.53;;;8.03;;
68247;SDS011;55064;49.636;12.164;2024-01-10T13:03:28;25.40;;;10.17;;
68247;SDS011;55064;49.636;12.164;2024-01-10T13:05:54;21.52;;;8.43;;
68247;SDS011;55064;49.636;12.164;2024-01-10T13:08:19;25.73;;;9.73;;
68247;SDS011;55064;49.636;12.164;2024-01-10T13:10:45;25.00;;;9.43;;
68247;SDS011;55064;49.636;12.164;2024-01-10T13:13:12;25.17;;;9.38;;
68247;SDS011;55064;49.636;12.164;2024-01-10T13:15:38;26.63;;;10.80;;
68247;SDS011;55064;49.636;12.164;2024-01-10T13:18:03;20.52;;;7.90;;
68247;SDS011;55064;49.636;12.164;2024-01-10T13:20:29;24.33;;;9.17;;
68247;SDS011;55064;49.636;12.164;2024-01-10T13:22:54;25.17;;;8.57;;
68247;SDS011;55064;49.636;12.164;2024-01-10T13:25:20;24.13;;;9.13;;
68247;SDS011;55064;49.636;12.164;2024-01-10T13:27:51;22.05;;;8.02;;
68247;SDS011;55064;49.636;12.164;2024-01-10T13:30:17;22.25;;;7.78;;
68247;SDS011;55064;49.636;12.164;2024-01-10T13:32:43;28.90;;;10.60;;
68247;SDS011;55064;49.636;12.164;2024-01-10T13:35:09;22.48;;;9.07;;
68247;SDS011;55064;49.636;12.164;2024-01-10T13:37:34;25.63;;;8.47;;
68247;SDS011;55064;49.636;12.164;2024-01-10T13:40:00;25.90;;;9.17;;
68247;SDS011;55064;49.636;12.164;2024-01-10T13:42:25;21.80;;;8.50;;
68247;SDS011;55064;49.636;12.164;2024-01-10T13:44:50;26.57;;;10.70;;
68247;SDS011;55064;49.636;12.164;2024-01-10T13:47:19;21.48;;;8.32;;
68247;SDS011;55064;49.636;12.164;2024-01-10T13:49:46;26.93;;;9.67;;
68247;SDS011;55064;49.636;12.164;2024-01-10T13:52:12;32.05;;;11.85;;
68247;SDS011;55064;49.636;12.164;2024-01-10T13:54:37;21.87;;;7.43;;
68247;SDS011;55064;49.636;12.164;2024-01-10T13:57:03;25.30;;;8.50;;
68247;SDS011;55064;49.636;12.164;2024-01-10T13:59:28;28.27;;;10.80;;
68247;SDS011;55064;49.636;12.164;2024-01-10T14:01:54;21.87;;;7.13;;
68247;SDS011;55064;49.636;12.164;2024-01-10T14:04:20;22.55;;;8.80;;
68247;SDS011;55064;49.636;12.164;2024-01-10T14:06:47;24.70;;;9.73;;
68247;SDS011;55064;49.636;12.164;2024-01-10T14:09:13;22.23;;;9.02;;
68247;SDS011;55064;49.636;12.164;2024-01-10T14:11:38;25.13;;;9.13;;
68247;SDS011;55064;49.636;12.164;2024-01-10T14:14:04;26.98;;;9.50;;
68247;SDS011;55064;49.636;12.164;2024-01-10T14:16:29;24.17;;;9.17;;
68247;SDS011;55064;49.636;12.164;2024-01-10T14:18:55;23.80;;;9.03;;
68247;SDS011;55064;49.636;12.164;2024-01-10T14:21:21;26.55;;;9.60;;
68247;SDS011;55064;49.636;12.164;2024-01-10T14:23:47;25.17;;;9.30;;
68247;SDS011;55064;49.636;12.164;2024-01-10T14:26:13;22.37;;;7.87;;
68247;SDS011;55064;49.636;12.164;2024-01-10T14:28:38;25.48;;;9.02;;